Current | Radar | Forecast | Satellite
Updated: 5:15 AM CDT on March 27, 2017
Observed at Hannibal Rgnl AP, Hannibal, M, Missouri
Temperature 8°C
Windchill 6°C
Humidity 93%
Dew Point 7°C
Wind ENE at 9 km/h
Pressure 1012 hPa (Steady)
Conditions Overcast
Visibility 16.1 kilometers
UV 0 out of 16
Clouds Mostly Cloudy (BKN) : 2743 m
Overcast (OVC) : 3048 m
Yesterday's Maximum 13°C
Yesterday's Minimum 9°C approx.
Yesterday's Heating Degree Days 13 approx.
Sunrise6:56 AM CDT
Sunset7:24 PM CDT
Moon Rise6:52 AM CDT
Moon Set7:08 PM CDT
Moon PhaseMoon Phase
Waning Crescent
Raw METARMETAR KHAE 271015Z AUTO 06005KT 10SM BKN090 OVC100 08/07 A2988 RMK AO2

Hull, IL

Current Radar

Radar Map
Zoom into radar image
Zoom into animated radar image


Forecast as of 11:09 AM CDT on January 17, 2017 from station KUIN
Forecast source: BestForecast - NWS
Monday

Mostly cloudy early with showers developing later in the day. High 66F. Winds SE at 10 to 20 mph. Chance of rain 50%.

Monday Night

Variably cloudy with scattered thunderstorms. Low around 50F. Winds SE at 10 to 20 mph. Chance of rain 60%.


Scientific forecaster discussion (NWS)

Units: English | Metric

Find the Weather for any City, State or Zipcode, or Country:

U.S. State List | Severe Weather | Tropical Storms | Ski Conditions
United States | Canada | Central America | South America | Asia | Europe | Australia | Africa | Islands

Weather Underground

© Copyright 2017
The Weather Company, LLC